createdAt,value
2019-04-05T00:01:05.088Z,11.57
2019-04-05T00:03:37.028Z,14.40
2019-04-05T00:06:09.371Z,12.87
2019-04-05T00:08:41.317Z,11.77
2019-04-05T00:11:13.242Z,11.03
2019-04-05T00:13:45.176Z,13.83
2019-04-05T00:16:17.106Z,13.33
2019-04-05T00:18:49.047Z,13.97
2019-04-05T00:21:21.295Z,14.63
2019-04-05T00:23:53.658Z,13.63
2019-04-05T00:26:26.013Z,11.20
2019-04-05T00:28:58.701Z,12.40
2019-04-05T00:31:30.639Z,10.80
2019-04-05T00:34:03.246Z,12.87
2019-04-05T00:36:35.618Z,10.93
2019-04-05T00:39:10.287Z,12.90
2019-04-05T00:41:42.225Z,12.37
2019-04-05T00:44:14.593Z,12.50
2019-04-05T00:46:46.540Z,15.47
2019-04-05T00:49:18.468Z,12.57
2019-04-05T00:51:50.738Z,14.03
2019-04-05T00:54:22.777Z,11.70
2019-04-05T00:56:55.074Z,14.00
2019-04-05T00:59:27.017Z,11.80
2019-04-05T01:01:58.950Z,13.93
2019-04-05T01:04:31.623Z,13.53
2019-04-05T01:07:03.666Z,13.20
2019-04-05T01:09:36.016Z,13.63
2019-04-05T01:12:08.513Z,13.53
2019-04-05T01:14:40.668Z,11.67
2019-04-05T01:17:24.459Z,9.97
2019-04-05T01:19:50.968Z,12.03
2019-04-05T01:22:28.022Z,15.03
2019-04-05T01:25:00.442Z,13.27
2019-04-05T01:27:35.364Z,14.60
2019-04-05T01:30:09.299Z,12.27
2019-04-05T01:32:41.855Z,16.53
2019-04-05T01:35:15.374Z,15.47
2019-04-05T01:37:48.041Z,14.40
2019-04-05T01:40:20.175Z,14.67
2019-04-05T01:42:52.945Z,13.87
2019-04-05T01:45:25.638Z,17.40
2019-04-05T01:47:57.713Z,14.67
2019-04-05T01:50:31.280Z,16.33
2019-04-05T01:53:03.229Z,15.47
2019-04-05T01:55:35.737Z,16.30
2019-04-05T01:58:07.967Z,15.53
2019-04-05T02:00:40.014Z,12.37
2019-04-05T02:03:11.952Z,14.03
2019-04-05T02:05:44.391Z,14.13
2019-04-05T02:08:16.855Z,14.27
2019-04-05T02:10:49.738Z,15.97
2019-04-05T02:13:21.705Z,12.57
2019-04-05T02:16:05.638Z,16.23
2019-04-05T02:18:27.656Z,15.17
2019-04-05T02:20:59.586Z,13.17
2019-04-05T02:23:31.524Z,14.23
2019-04-05T02:26:03.768Z,15.13
2019-04-05T02:28:36.222Z,15.57
2019-04-05T02:31:08.481Z,16.07
2019-04-05T02:33:41.137Z,15.03
2019-04-05T02:36:13.507Z,14.83
2019-04-05T02:38:45.551Z,12.87
2019-04-05T02:41:18.616Z,15.17
2019-04-05T02:43:54.483Z,15.13
2019-04-05T02:46:29.527Z,14.80
2019-04-05T02:49:05.008Z,16.30
2019-04-05T02:51:39.914Z,16.97
2019-04-05T02:54:13.903Z,14.10
2019-04-05T02:56:46.978Z,15.23
2019-04-05T02:59:19.763Z,15.17
2019-04-05T03:01:52.886Z,14.40
2019-04-05T03:04:25.342Z,14.70
2019-04-05T03:06:58.210Z,16.63
2019-04-05T03:09:30.845Z,15.77
2019-04-05T03:12:03.841Z,18.27
2019-04-05T03:14:37.004Z,15.73
2019-04-05T03:17:10.890Z,15.97
2019-04-05T03:19:45.785Z,18.17
2019-04-05T03:22:20.089Z,14.33
2019-04-05T03:24:53.533Z,15.97
2019-04-05T03:27:30.584Z,17.30
2019-04-05T03:30:03.678Z,16.97
2019-04-05T03:32:35.946Z,17.37
2019-04-05T03:35:09.310Z,20.43
2019-04-05T03:37:41.891Z,16.80
2019-04-05T03:40:14.027Z,19.27
2019-04-05T03:42:46.964Z,19.60
2019-04-05T03:45:19.255Z,18.87
2019-04-05T03:47:51.520Z,17.77
2019-04-05T03:50:24.528Z,13.57
2019-04-05T03:52:57.106Z,18.83
2019-04-05T03:55:29.725Z,20.00
2019-04-05T03:58:02.030Z,18.13
2019-04-05T04:00:34.366Z,17.43
2019-04-05T04:03:08.332Z,16.67
2019-04-05T04:05:40.689Z,20.30
2019-04-05T04:08:13.893Z,19.47
2019-04-05T04:10:47.388Z,23.33
2019-04-05T04:13:20.083Z,18.10
2019-04-05T04:15:54.898Z,20.93
2019-04-05T04:18:28.356Z,21.07
2019-04-05T04:21:06.141Z,20.43
2019-04-05T04:23:38.652Z,20.67
2019-04-05T04:26:11.046Z,22.17
2019-04-05T04:28:43.148Z,20.67
2019-04-05T04:31:16.458Z,22.63
2019-04-05T04:33:49.158Z,20.97
2019-04-05T04:36:22.670Z,23.83
2019-04-05T04:38:55.482Z,18.47
2019-04-05T04:41:27.572Z,23.60
2019-04-05T04:44:00.978Z,19.00
2019-04-05T04:46:34.231Z,20.87
2019-04-05T04:49:06.950Z,18.93
2019-04-05T04:51:39.855Z,18.37
2019-04-05T04:54:13.209Z,19.23
2019-04-05T04:56:46.067Z,19.30
2019-04-05T04:59:19.257Z,21.40
2019-04-05T05:01:51.420Z,19.57
2019-04-05T05:04:23.775Z,17.43
2019-04-05T05:06:56.588Z,21.13
2019-04-05T05:09:29.606Z,19.33
2019-04-05T05:12:02.227Z,19.80
2019-04-05T05:14:34.943Z,17.27
2019-04-05T05:17:07.924Z,17.67
2019-04-05T05:19:40.640Z,19.30
2019-04-05T05:22:13.119Z,20.33
2019-04-05T05:24:45.538Z,18.90
2019-04-05T05:27:17.825Z,25.90
2019-04-05T05:29:50.026Z,28.93
2019-04-05T05:32:23.234Z,27.40
2019-04-05T05:35:01.949Z,22.37
2019-04-05T05:37:32.698Z,24.47
2019-04-05T05:40:03.856Z,32.07
2019-04-05T05:42:36.177Z,29.87
2019-04-05T05:45:09.394Z,23.23
2019-04-05T05:47:51.612Z,24.27
2019-04-05T05:50:16.038Z,24.30
2019-04-05T05:52:48.342Z,24.50
2019-04-05T05:55:20.849Z,22.37
2019-04-05T05:57:54.871Z,26.10
2019-04-05T06:00:30.160Z,27.90
2019-04-05T06:03:01.610Z,23.00
2019-04-05T06:05:34.431Z,22.90
2019-04-05T06:08:06.554Z,18.57
2019-04-05T06:10:38.644Z,21.07
2019-04-05T06:13:11.084Z,19.37
2019-04-05T06:15:43.916Z,18.57
2019-04-05T06:18:15.928Z,17.80
2019-04-05T06:20:47.948Z,20.60
2019-04-05T06:23:32.790Z,19.50
2019-04-05T06:25:54.195Z,17.37
2019-04-05T06:28:26.692Z,18.87
2019-04-05T06:30:58.775Z,18.70
2019-04-05T06:33:32.088Z,19.33
2019-04-05T06:36:04.752Z,21.53
2019-04-05T06:38:36.849Z,18.63
2019-04-05T06:41:09.784Z,16.70
2019-04-05T06:43:41.835Z,23.67
2019-04-05T06:46:13.863Z,21.87
2019-04-05T06:48:45.809Z,29.47
2019-04-05T06:51:18.151Z,174.40
2019-04-05T06:53:50.695Z,159.10
2019-04-05T06:56:23.152Z,75.53
2019-04-05T06:58:55.574Z,32.63
2019-04-05T07:01:28.406Z,31.67
2019-04-05T07:04:00.821Z,73.27
2019-04-05T07:06:33.260Z,37.40
2019-04-05T07:09:06.391Z,56.17
2019-04-05T07:11:38.918Z,34.97
2019-04-05T07:14:11.440Z,23.30
2019-04-05T07:16:44.295Z,24.87
2019-04-05T07:19:16.603Z,19.73
2019-04-05T07:21:49.040Z,22.00
2019-04-05T07:24:21.457Z,20.37
2019-04-05T07:26:53.457Z,16.60
2019-04-05T07:29:25.928Z,22.70
2019-04-05T07:31:58.673Z,20.87
2019-04-05T07:34:30.780Z,20.77
2019-04-05T07:37:04.320Z,19.47
2019-04-05T07:39:37.129Z,20.60
2019-04-05T07:42:09.034Z,15.17
2019-04-05T07:44:41.165Z,25.40
2019-04-05T07:47:13.610Z,20.90
2019-04-05T07:49:46.114Z,23.57
2019-04-05T07:52:18.535Z,24.90
2019-04-05T07:54:50.633Z,20.37
2019-04-05T07:57:22.781Z,22.37
2019-04-05T07:59:55.529Z,26.00
2019-04-05T08:02:27.936Z,23.47
2019-04-05T08:05:00.820Z,25.93
2019-04-05T08:07:37.481Z,26.30
2019-04-05T08:10:12.007Z,22.00
2019-04-05T08:12:44.184Z,22.33
2019-04-05T08:15:16.487Z,19.17
2019-04-05T08:17:48.886Z,17.60
2019-04-05T08:20:20.941Z,20.97
2019-04-05T08:22:53.033Z,21.37
2019-04-05T08:25:25.533Z,19.07
2019-04-05T08:27:57.561Z,18.20
2019-04-05T08:30:29.564Z,24.47
2019-04-05T08:33:02.000Z,19.17
2019-04-05T08:35:34.519Z,20.87
2019-04-05T08:38:06.618Z,17.27
2019-04-05T08:40:39.004Z,15.80
2019-04-05T08:43:10.939Z,17.10
2019-04-05T08:45:43.306Z,18.97
2019-04-05T08:48:15.211Z,17.33
2019-04-05T08:50:47.225Z,18.53
2019-04-05T08:53:19.924Z,18.47
2019-04-05T08:55:52.698Z,18.07
2019-04-05T08:58:33.423Z,20.47
2019-04-05T09:00:59.017Z,18.97
2019-04-05T09:03:31.943Z,16.30
2019-04-05T09:06:04.245Z,17.87
2019-04-05T09:08:36.638Z,18.90
2019-04-05T09:11:09.465Z,22.43
2019-04-05T09:13:41.485Z,19.77
2019-04-05T09:16:14.298Z,20.53
2019-04-05T09:18:49.211Z,21.37
2019-04-05T09:21:20.192Z,18.90
2019-04-05T09:23:52.562Z,19.30
2019-04-05T09:26:24.581Z,19.03
2019-04-05T09:28:56.810Z,17.40
2019-04-05T09:31:29.279Z,19.53
2019-04-05T09:34:01.271Z,19.87
2019-04-05T09:36:33.635Z,14.53
2019-04-05T09:39:13.853Z,17.60
2019-04-05T09:41:43.927Z,20.70
2019-04-05T09:44:16.317Z,19.40
2019-04-05T09:46:51.166Z,18.23
2019-04-05T09:49:22.643Z,20.47
2019-04-05T09:51:54.660Z,22.70
2019-04-05T09:54:26.910Z,18.60
2019-04-05T09:56:59.000Z,19.97
2019-04-05T09:59:31.015Z,21.67
2019-04-05T10:02:03.341Z,20.00
2019-04-05T10:04:36.204Z,22.93
2019-04-05T10:07:09.065Z,19.77
2019-04-05T10:09:41.617Z,21.47
2019-04-05T10:12:13.635Z,19.03
2019-04-05T10:15:05.343Z,23.63
2019-04-05T10:17:54.921Z,22.93
2019-04-05T10:20:45.548Z,22.27
2019-04-05T10:23:34.908Z,21.77
2019-04-05T10:26:24.469Z,20.23
2019-04-05T10:29:14.020Z,22.37
2019-04-05T10:32:03.834Z,21.97
2019-04-05T10:34:53.569Z,22.80
2019-04-05T10:37:43.414Z,22.00
2019-04-05T10:40:33.459Z,19.83
2019-04-05T10:43:22.869Z,19.20
2019-04-05T10:46:12.843Z,21.13
2019-04-05T10:49:02.938Z,21.23
2019-04-05T10:51:53.135Z,20.13
2019-04-05T10:54:42.703Z,21.17
2019-04-05T10:57:32.985Z,20.50
2019-04-05T11:00:23.696Z,23.60
2019-04-05T11:03:13.664Z,14.30
2019-04-05T11:06:03.388Z,16.37
2019-04-05T11:08:53.486Z,19.10
2019-04-05T11:11:43.223Z,20.00
2019-04-05T11:14:33.608Z,19.17
2019-04-05T11:17:23.046Z,18.67
2019-04-05T11:20:21.045Z,19.50
2019-04-05T11:23:04.468Z,17.97
2019-04-05T11:25:36.373Z,15.63
2019-04-05T11:28:09.039Z,19.83
2019-04-05T11:30:49.274Z,16.70
2019-04-05T11:33:21.838Z,16.87
2019-04-05T11:35:57.728Z,18.83
2019-04-05T11:38:30.123Z,17.47
2019-04-05T11:41:04.031Z,13.93
2019-04-05T11:43:37.843Z,15.80
2019-04-05T11:46:10.324Z,21.33
2019-04-05T11:48:42.984Z,17.83
2019-04-05T11:51:15.255Z,17.23
2019-04-05T11:53:48.371Z,18.30
2019-04-05T11:56:23.141Z,15.53
2019-04-05T11:58:56.620Z,14.97
2019-04-05T12:01:50.935Z,17.17
2019-04-05T12:04:23.363Z,16.93
2019-04-05T12:06:55.759Z,19.00
2019-04-05T12:09:27.977Z,16.07
2019-04-05T12:11:59.866Z,17.67
2019-04-05T12:14:31.913Z,13.67
2019-04-05T12:17:05.556Z,18.10
2019-04-05T12:19:38.857Z,14.60
2019-04-05T12:22:10.801Z,17.87
2019-04-05T12:24:43.261Z,17.83
2019-04-05T12:27:15.136Z,18.33
2019-04-05T12:29:47.161Z,18.23
2019-04-05T12:32:32.973Z,18.77
2019-04-05T12:34:55.257Z,16.47
2019-04-05T12:37:27.640Z,15.53
2019-04-05T12:39:59.567Z,18.17
2019-04-05T12:42:32.034Z,14.50
2019-04-05T12:45:04.131Z,14.30
2019-04-05T12:47:36.211Z,18.43
2019-04-05T12:50:14.111Z,16.73
2019-04-05T12:52:45.891Z,17.60
2019-04-05T12:55:18.933Z,13.13
2019-04-05T12:57:51.380Z,16.27
2019-04-05T13:00:25.975Z,17.17
2019-04-05T13:02:58.482Z,19.60
2019-04-05T13:05:33.779Z,16.50
2019-04-05T13:08:08.144Z,15.93
2019-04-05T13:10:40.188Z,16.83
2019-04-05T13:13:12.703Z,14.27
2019-04-05T13:15:44.718Z,16.53
2019-04-05T13:18:16.844Z,13.83
2019-04-05T13:20:49.187Z,12.43
2019-04-05T13:23:21.206Z,17.73
2019-04-05T13:25:53.331Z,15.00
2019-04-05T13:28:25.830Z,13.27
2019-04-05T13:30:58.247Z,15.60
2019-04-05T13:33:30.334Z,14.27
2019-04-05T13:36:02.666Z,14.10
2019-04-05T13:38:34.743Z,14.10
2019-04-05T13:41:06.947Z,12.80
2019-04-05T13:43:39.892Z,12.93
2019-04-05T13:46:21.818Z,12.77
2019-04-05T13:48:46.823Z,12.27
2019-04-05T13:51:27.761Z,14.33
2019-04-05T13:53:54.108Z,13.87
2019-04-05T13:56:26.616Z,14.77
2019-04-05T13:58:58.644Z,12.07
2019-04-05T14:01:31.008Z,12.07
2019-04-05T14:04:03.665Z,13.00
2019-04-05T14:06:36.062Z,10.53
2019-04-05T14:09:10.393Z,15.73
2019-04-05T14:11:43.277Z,14.17
2019-04-05T14:14:16.133Z,14.77
2019-04-05T14:16:48.997Z,17.23
2019-04-05T14:19:21.498Z,14.37
2019-04-05T14:22:07.505Z,16.77
2019-04-05T14:24:28.555Z,15.67
2019-04-05T14:27:02.967Z,15.50
2019-04-05T14:29:34.264Z,15.10
2019-04-05T14:32:20.574Z,18.60
2019-04-05T14:34:40.396Z,14.43
2019-04-05T14:37:12.910Z,16.13
2019-04-05T14:39:45.257Z,14.63
2019-04-05T14:42:17.679Z,15.30
2019-04-05T14:44:50.074Z,13.83
2019-04-05T14:47:22.603Z,16.77
2019-04-05T14:49:55.011Z,15.90
2019-04-05T14:52:28.885Z,18.90
2019-04-05T14:55:01.635Z,16.23
2019-04-05T14:57:35.683Z,16.50
2019-04-05T15:00:14.832Z,13.23
2019-04-05T15:02:45.311Z,15.53
2019-04-05T15:05:18.161Z,12.53
2019-04-05T15:07:51.111Z,16.43
2019-04-05T15:10:25.285Z,13.30
2019-04-05T15:13:00.202Z,15.47
2019-04-05T15:15:32.281Z,17.87
2019-04-05T15:18:04.486Z,15.53
2019-04-05T15:20:37.240Z,15.63
2019-04-05T15:23:09.828Z,12.10
2019-04-05T15:25:43.648Z,14.07
2019-04-05T15:28:16.083Z,15.33
2019-04-05T15:30:49.585Z,16.00
2019-04-05T15:33:22.107Z,13.43
2019-04-05T15:35:58.050Z,11.77
2019-04-05T15:38:31.400Z,8.83
2019-04-05T15:41:02.671Z,15.80
2019-04-05T15:43:35.002Z,15.53
2019-04-05T15:46:07.774Z,12.57
2019-04-05T15:48:40.795Z,13.73
2019-04-05T15:51:13.539Z,10.43
2019-04-05T15:53:46.302Z,11.27
2019-04-05T15:56:18.764Z,13.37
2019-04-05T15:58:52.348Z,11.03
2019-04-05T16:01:24.703Z,11.50
2019-04-05T16:03:56.718Z,14.10
2019-04-05T16:06:29.571Z,10.60
2019-04-05T16:09:02.404Z,10.27
2019-04-05T16:11:34.816Z,12.53
2019-04-05T16:14:07.870Z,16.40
2019-04-05T16:16:40.199Z,13.30
2019-04-05T16:19:12.965Z,11.77
2019-04-05T16:21:45.473Z,9.83
2019-04-05T16:24:17.559Z,14.00
2019-04-05T16:26:50.410Z,11.73
2019-04-05T16:29:23.238Z,7.37
2019-04-05T16:31:56.150Z,10.80
2019-04-05T16:34:29.335Z,11.77
2019-04-05T16:37:01.713Z,8.40
2019-04-05T16:39:33.807Z,12.80
2019-04-05T16:42:06.554Z,7.23
2019-04-05T16:44:38.883Z,11.97
2019-04-05T16:47:11.631Z,11.40
2019-04-05T16:49:43.960Z,10.13
2019-04-05T16:52:16.372Z,12.87
2019-04-05T16:54:49.559Z,10.20
2019-04-05T16:57:21.642Z,12.30
2019-04-05T16:59:53.780Z,13.87
2019-04-05T17:02:26.632Z,11.40
2019-04-05T17:04:58.668Z,13.33
2019-04-05T17:07:30.684Z,11.57
2019-04-05T17:10:02.698Z,9.80
2019-04-05T17:12:34.703Z,10.17
2019-04-05T17:15:08.571Z,9.57
2019-04-05T17:17:41.211Z,9.80
2019-04-05T17:20:13.863Z,12.93
2019-04-05T17:22:57.549Z,10.90
2019-04-05T17:25:20.939Z,9.07
2019-04-05T17:27:53.447Z,12.97
2019-04-05T17:30:25.544Z,10.27
2019-04-05T17:32:58.376Z,14.07
2019-04-05T17:35:31.476Z,10.73
2019-04-05T17:38:03.884Z,13.67
2019-04-05T17:40:36.709Z,14.17
2019-04-05T17:43:08.809Z,13.87
2019-04-05T17:45:41.240Z,11.77
2019-04-05T17:48:13.670Z,11.77
2019-04-05T17:50:46.077Z,9.47
2019-04-05T17:53:20.480Z,11.50
2019-04-05T17:55:52.723Z,11.63
2019-04-05T17:58:28.515Z,11.77
2019-04-05T18:01:00.967Z,9.77
2019-04-05T18:03:33.716Z,11.73
2019-04-05T18:06:06.757Z,12.03
2019-04-05T18:08:39.606Z,14.10
2019-04-05T18:11:12.047Z,12.93
2019-04-05T18:13:44.553Z,11.27
2019-04-05T18:16:17.385Z,14.10
2019-04-05T18:18:50.549Z,13.97
2019-04-05T18:21:22.654Z,12.67
2019-04-05T18:23:55.465Z,11.40
2019-04-05T18:26:28.637Z,16.90
2019-04-05T18:29:01.166Z,15.63
2019-04-05T18:31:34.490Z,19.83
2019-04-05T18:34:06.712Z,19.17
2019-04-05T18:36:39.663Z,17.03
2019-04-05T18:39:12.686Z,19.50
2019-04-05T18:41:45.194Z,16.97
2019-04-05T18:44:18.255Z,12.33
2019-04-05T18:46:50.576Z,14.90
2019-04-05T18:49:23.349Z,14.63
2019-04-05T18:51:55.759Z,16.77
2019-04-05T18:54:27.855Z,16.07
2019-04-05T18:57:00.678Z,15.47
2019-04-05T18:59:33.769Z,16.30
2019-04-05T19:02:06.206Z,15.27
2019-04-05T19:04:38.224Z,14.17
2019-04-05T19:07:11.409Z,15.00
2019-04-05T19:09:43.488Z,12.77
2019-04-05T19:12:15.595Z,15.23
2019-04-05T19:14:47.930Z,10.73
2019-04-05T19:17:24.058Z,13.27
2019-04-05T19:19:55.063Z,16.13
2019-04-05T19:22:27.471Z,13.67
2019-04-05T19:25:00.546Z,14.67
2019-04-05T19:27:33.476Z,14.43
2019-04-05T19:50:41.375Z,14.90
2019-04-05T19:53:14.267Z,15.00
2019-04-05T19:55:47.412Z,13.00
2019-04-05T19:58:20.191Z,17.37
2019-04-05T20:00:52.271Z,17.63
2019-04-05T20:03:24.287Z,18.27
2019-04-05T20:05:56.716Z,20.43
2019-04-05T20:08:28.772Z,19.47
2019-04-05T20:11:01.294Z,16.93
2019-04-05T20:13:33.548Z,16.37
2019-04-05T20:16:06.016Z,16.87
2019-04-05T20:18:38.911Z,19.47
2019-04-05T20:21:11.558Z,19.70
2019-04-05T20:23:47.680Z,17.83
2019-04-05T20:26:17.693Z,20.17
2019-04-05T20:28:49.597Z,16.03
2019-04-05T20:31:22.583Z,12.80
2019-04-05T20:33:55.375Z,16.73
2019-04-05T20:36:28.222Z,19.87
2019-04-05T20:39:00.667Z,18.83
2019-04-05T20:41:32.940Z,14.10
2019-04-05T20:44:04.981Z,15.90
2019-04-05T20:46:37.453Z,16.27
2019-04-05T20:49:11.928Z,14.77
2019-04-05T20:51:44.120Z,15.73
2019-04-05T20:54:24.597Z,13.43
2019-04-05T20:56:50.438Z,15.53
2019-04-05T20:59:23.256Z,20.70
2019-04-05T21:01:55.221Z,16.93
2019-04-05T21:04:27.277Z,18.27
2019-04-05T21:06:59.890Z,17.23
2019-04-05T21:09:31.987Z,19.77
2019-04-05T21:12:04.376Z,16.40
2019-04-05T21:14:37.653Z,21.90
2019-04-05T21:17:10.023Z,19.03
2019-04-05T21:19:41.991Z,17.67
2019-04-05T21:22:14.032Z,21.37
2019-04-05T21:24:46.786Z,20.17
2019-04-05T21:27:19.289Z,18.83
2019-04-05T21:29:51.302Z,15.70
2019-04-05T21:32:23.697Z,20.27
2019-04-05T21:34:56.715Z,16.47
2019-04-05T21:37:29.138Z,17.93
2019-04-05T21:40:01.672Z,17.27
2019-04-05T21:42:34.462Z,17.33
2019-04-05T21:45:06.870Z,19.57
2019-04-05T21:47:39.184Z,15.27
2019-04-05T21:50:13.098Z,16.03
2019-04-05T21:52:45.023Z,16.33
2019-04-05T21:55:17.394Z,18.27
2019-04-05T21:57:49.397Z,21.07
2019-04-05T22:00:31.213Z,20.27
2019-04-05T22:03:04.075Z,16.27
2019-04-05T22:05:36.530Z,18.47
2019-04-05T22:08:09.144Z,19.60
2019-04-05T22:10:41.241Z,16.30
2019-04-05T22:13:14.092Z,19.97
2019-04-05T22:15:45.995Z,17.03
2019-04-05T22:18:17.925Z,18.40
2019-04-05T22:20:50.407Z,18.67
2019-04-05T22:23:22.337Z,15.80
2019-04-05T22:25:54.314Z,17.60
2019-04-05T22:28:26.669Z,18.47
2019-04-05T22:30:59.417Z,17.00
2019-04-05T22:33:31.804Z,14.80
2019-04-05T22:36:04.209Z,17.97
2019-04-05T22:38:37.097Z,20.77
2019-04-05T22:41:09.202Z,19.60
2019-04-05T22:43:42.470Z,17.67
2019-04-05T22:46:14.444Z,16.40
2019-04-05T22:48:46.831Z,18.30
2019-04-05T22:51:19.316Z,17.60
2019-04-05T22:53:51.844Z,20.33
2019-04-05T22:56:24.043Z,17.70
2019-04-05T22:58:56.179Z,20.43
2019-04-05T23:01:28.612Z,20.37
2019-04-05T23:04:01.446Z,14.73
2019-04-05T23:06:33.422Z,18.87
2019-04-05T23:09:07.243Z,19.37
2019-04-05T23:11:39.259Z,18.97
2019-04-05T23:14:11.439Z,17.67
2019-04-05T23:16:43.947Z,19.67
2019-04-05T23:19:15.965Z,18.27
2019-04-05T23:21:48.609Z,17.57
2019-04-05T23:24:20.569Z,16.90
2019-04-05T23:26:53.782Z,20.00
2019-04-05T23:29:25.803Z,19.80
2019-04-05T23:31:58.133Z,20.60
2019-04-05T23:34:30.149Z,20.37
2019-04-05T23:37:02.473Z,22.03
2019-04-05T23:39:35.338Z,27.30
2019-04-05T23:42:07.399Z,18.97
2019-04-05T23:44:39.837Z,22.47
2019-04-05T23:47:12.190Z,23.30
2019-04-05T23:49:44.514Z,23.63
2019-04-05T23:52:16.530Z,20.47
2019-04-05T23:54:48.536Z,22.07
2019-04-05T23:57:20.613Z,18.17
2019-04-05T23:59:52.550Z,13.57
